KFLL/FLL METAR and TAF weather

Enter ICAO airport designator
Station Type Date Time Source
KFLL METAR 2020/10/22 02:53 UTC NOAA

KFLL 220253Z 07017G22KT 10SM FEW014 BKN035 BKN055 26/24 A2997 RMK AO2 PK WND 08027/0237 SLP148 T02560239 51009 $


Station Type Date Time Source
KFLL Decoded METAR 2020/10/22 02:53 UTC NOAA

FORT LAUDERDALE/HOLLYWOOD, FL, United States (KFLL) 26-04N 080-09W 30M
Oct 21, 2020 - 10:53 PM EDT / 2020.10.22 0253 UTC
Wind: from the ENE (070 degrees) at 20 MPH (17 KT) gusting to 25 MPH (22 KT):0
Visibility: 10 mile(s):0
Sky conditions: mostly cloudy
Temperature: 78.1 F (25.6 C)
Dew Point: 75.0 F (23.9 C)
Relative Humidity: 90%
Pressure (altimeter): 29.97 in. Hg (1014 hPa)
Pressure tendency: 0.03 inches (0.9 hPa) higher than three hours ago
ob: KFLL 220253Z 07017G22KT 10SM FEW014 BKN035 BKN055 26/24 A2997 RMK AO2 PK WND 08027/0237 SLP148 T02560239 51009
cycle: 3

Station Type Date Time Source
KFLL TAF 2020/10/22 03:07 UTC NOAA

TAF
AMD KFLL 220302Z 2203/2306 07010G20KT P6SM VCSH SCT025 BKN100
FM220400 10015KT P6SM VCSH SCT025 BKN100
FM221300 09012KT P6SM VCSH SCT025 SCT100
FM221800 10015KT P6SM SCT025 BKN050

Example: see airport list